sensor_id;sensor_type;location;lat;lon;timestamp;pressure;altitude;pressure_sealevel;temperature;humidity
47330;BME280;33060;50.178;7.570;2024-01-15T00:02:03;95860.78;;;-1.06;100.00
47330;BME280;33060;50.178;7.570;2024-01-15T00:04:30;95855.63;;;-1.06;100.00
47330;BME280;33060;50.178;7.570;2024-01-15T00:06:56;95852.94;;;-1.44;100.00
47330;BME280;33060;50.178;7.570;2024-01-15T00:09:23;95854.94;;;-1.10;100.00
47330;BME280;33060;50.178;7.570;2024-01-15T00:11:50;95849.09;;;-0.95;100.00
47330;BME280;33060;50.178;7.570;2024-01-15T00:14:17;95855.72;;;-1.49;100.00
47330;BME280;33060;50.178;7.570;2024-01-15T00:16:47;95841.13;;;-0.71;100.00
47330;BME280;33060;50.178;7.570;2024-01-15T00:19:15;95835.47;;;-0.61;100.00
47330;BME280;33060;50.178;7.570;2024-01-15T00:21:42;95843.78;;;-0.92;100.00
47330;BME280;33060;50.178;7.570;2024-01-15T00:24:09;95836.25;;;-0.59;100.00
47330;BME280;33060;50.178;7.570;2024-01-15T00:26:36;95830.66;;;-1.07;100.00
47330;BME280;33060;50.178;7.570;2024-01-15T00:29:03;95826.41;;;-1.08;100.00
47330;BME280;33060;50.178;7.570;2024-01-15T00:31:30;95827.13;;;-0.86;100.00
47330;BME280;33060;50.178;7.570;2024-01-15T00:33:57;95821.25;;;-0.71;100.00
47330;BME280;33060;50.178;7.570;2024-01-15T00:36:27;95821.81;;;-1.22;100.00
47330;BME280;33060;50.178;7.570;2024-01-15T00:38:54;95810.53;;;-1.01;100.00
47330;BME280;33060;50.178;7.570;2024-01-15T00:41:20;95812.09;;;-0.78;100.00
47330;BME280;33060;50.178;7.570;2024-01-15T00:43:47;95826.28;;;-1.26;100.00
47330;BME280;33060;50.178;7.570;2024-01-15T00:46:15;95821.81;;;-1.22;100.00
47330;BME280;33060;50.178;7.570;2024-01-15T00:48:42;95810.63;;;-0.83;100.00
47330;BME280;33060;50.178;7.570;2024-01-15T00:51:09;95817.34;;;-0.61;100.00
47330;BME280;33060;50.178;7.570;2024-01-15T00:53:36;95818.97;;;-1.16;100.00
47330;BME280;33060;50.178;7.570;2024-01-15T00:56:03;95811.47;;;-0.83;100.00
47330;BME280;33060;50.178;7.570;2024-01-15T00:58:30;95805.09;;;-0.95;100.00
47330;BME280;33060;50.178;7.570;2024-01-15T01:00:56;95806.19;;;-1.19;100.00
47330;BME280;33060;50.178;7.570;2024-01-15T01:03:23;95804.53;;;-1.01;100.00
47330;BME280;33060;50.178;7.570;2024-01-15T01:05:50;95803.81;;;-1.05;100.00
47330;BME280;33060;50.178;7.570;2024-01-15T01:08:17;95803.47;;;-0.78;100.00
47330;BME280;33060;50.178;7.570;2024-01-15T01:10:43;95798.84;;;-0.91;100.00
47330;BME280;33060;50.178;7.570;2024-01-15T01:13:10;95800.28;;;-0.83;100.00
47330;BME280;33060;50.178;7.570;2024-01-15T01:15:37;95799.72;;;-1.29;100.00
47330;BME280;33060;50.178;7.570;2024-01-15T01:18:05;95795.19;;;-1.05;100.00
47330;BME280;33060;50.178;7.570;2024-01-15T01:20:32;95796.63;;;-0.79;100.00
47330;BME280;33060;50.178;7.570;2024-01-15T01:22:59;95791.44;;;-0.98;100.00
47330;BME280;33060;50.178;7.570;2024-01-15T01:25:26;95786.00;;;-0.92;100.00
47330;BME280;33060;50.178;7.570;2024-01-15T01:27:53;95783.75;;;-1.00;100.00
47330;BME280;33060;50.178;7.570;2024-01-15T01:30:20;95782.00;;;-0.99;100.00
47330;BME280;33060;50.178;7.570;2024-01-15T01:32:47;95797.94;;;-0.90;100.00
47330;BME280;33060;50.178;7.570;2024-01-15T01:35:14;95790.13;;;-0.69;100.00
47330;BME280;33060;50.178;7.570;2024-01-15T01:37:41;95790.34;;;-0.93;100.00
47330;BME280;33060;50.178;7.570;2024-01-15T01:40:08;95784.50;;;-0.98;100.00
47330;BME280;33060;50.178;7.570;2024-01-15T01:42:34;95791.31;;;-0.95;100.00
47330;BME280;33060;50.178;7.570;2024-01-15T01:45:01;95787.25;;;-0.63;100.00
47330;BME280;33060;50.178;7.570;2024-01-15T01:47:28;95792.72;;;-0.69;100.00
47330;BME280;33060;50.178;7.570;2024-01-15T01:49:55;95788.34;;;-0.88;100.00
47330;BME280;33060;50.178;7.570;2024-01-15T01:52:22;95788.22;;;-0.66;100.00
47330;BME280;33060;50.178;7.570;2024-01-15T01:54:49;95799.44;;;-0.65;100.00
47330;BME280;33060;50.178;7.570;2024-01-15T01:57:18;95791.03;;;-0.51;100.00
47330;BME280;33060;50.178;7.570;2024-01-15T01:59:45;95785.50;;;-0.81;100.00
47330;BME280;33060;50.178;7.570;2024-01-15T02:02:13;95784.16;;;-0.71;100.00
47330;BME280;33060;50.178;7.570;2024-01-15T02:04:40;95782.97;;;-0.64;100.00
47330;BME280;33060;50.178;7.570;2024-01-15T02:07:07;95788.66;;;-0.75;100.00
47330;BME280;33060;50.178;7.570;2024-01-15T02:09:34;95769.88;;;-0.61;100.00
47330;BME280;33060;50.178;7.570;2024-01-15T02:12:01;95775.84;;;-0.97;100.00
47330;BME280;33060;50.178;7.570;2024-01-15T02:14:28;95778.72;;;-1.03;100.00
47330;BME280;33060;50.178;7.570;2024-01-15T02:16:54;95765.88;;;-0.49;100.00
47330;BME280;33060;50.178;7.570;2024-01-15T02:19:21;95773.75;;;-0.51;100.00
47330;BME280;33060;50.178;7.570;2024-01-15T02:21:48;95778.19;;;-0.54;100.00
47330;BME280;33060;50.178;7.570;2024-01-15T02:24:15;95772.38;;;-0.41;100.00
47330;BME280;33060;50.178;7.570;2024-01-15T02:26:42;95773.34;;;-0.61;100.00
47330;BME280;33060;50.178;7.570;2024-01-15T02:29:09;95765.41;;;-0.58;100.00
47330;BME280;33060;50.178;7.570;2024-01-15T02:31:37;95762.53;;;-0.70;100.00
47330;BME280;33060;50.178;7.570;2024-01-15T02:34:04;95767.88;;;-0.73;100.00
47330;BME280;33060;50.178;7.570;2024-01-15T02:36:31;95766.28;;;-0.95;100.00
47330;BME280;33060;50.178;7.570;2024-01-15T02:38:58;95767.09;;;-0.75;100.00
47330;BME280;33060;50.178;7.570;2024-01-15T02:41:25;95765.00;;;-0.67;100.00
47330;BME280;33060;50.178;7.570;2024-01-15T02:43:52;95765.75;;;-0.65;100.00
47330;BME280;33060;50.178;7.570;2024-01-15T02:46:18;95775.78;;;-0.58;100.00
47330;BME280;33060;50.178;7.570;2024-01-15T02:48:45;95778.13;;;-0.53;100.00
47330;BME280;33060;50.178;7.570;2024-01-15T02:51:12;95771.44;;;-0.57;100.00
47330;BME280;33060;50.178;7.570;2024-01-15T02:53:38;95779.28;;;-0.77;100.00
47330;BME280;33060;50.178;7.570;2024-01-15T02:56:07;95768.78;;;-0.93;100.00
47330;BME280;33060;50.178;7.570;2024-01-15T02:58:34;95761.84;;;-0.74;100.00
47330;BME280;33060;50.178;7.570;2024-01-15T03:01:00;95767.81;;;-0.91;100.00
47330;BME280;33060;50.178;7.570;2024-01-15T03:03:28;95757.66;;;-0.76;100.00
47330;BME280;33060;50.178;7.570;2024-01-15T03:05:55;95768.38;;;-0.84;100.00
47330;BME280;33060;50.178;7.570;2024-01-15T03:08:22;95760.75;;;-0.68;100.00
47330;BME280;33060;50.178;7.570;2024-01-15T03:10:49;95757.38;;;-0.51;100.00
47330;BME280;33060;50.178;7.570;2024-01-15T03:13:16;95754.41;;;-0.63;100.00
47330;BME280;33060;50.178;7.570;2024-01-15T03:15:43;95754.50;;;-0.83;100.00
47330;BME280;33060;50.178;7.570;2024-01-15T03:18:09;95761.78;;;-0.91;100.00
47330;BME280;33060;50.178;7.570;2024-01-15T03:20:37;95758.69;;;-0.80;100.00
47330;BME280;33060;50.178;7.570;2024-01-15T03:23:03;95757.66;;;-0.76;100.00
47330;BME280;33060;50.178;7.570;2024-01-15T03:25:30;95755.53;;;-0.49;100.00
47330;BME280;33060;50.178;7.570;2024-01-15T03:27:57;95752.72;;;-0.45;100.00
47330;BME280;33060;50.178;7.570;2024-01-15T03:30:23;95763.19;;;-0.65;100.00
47330;BME280;33060;50.178;7.570;2024-01-15T03:32:50;95760.78;;;-0.70;100.00
47330;BME280;33060;50.178;7.570;2024-01-15T03:35:17;95757.38;;;-0.51;100.00
47330;BME280;33060;50.178;7.570;2024-01-15T03:37:44;95761.34;;;-0.63;100.00
47330;BME280;33060;50.178;7.570;2024-01-15T03:40:11;95760.88;;;-0.90;100.00
47330;BME280;33060;50.178;7.570;2024-01-15T03:42:38;95753.78;;;-0.49;100.00
47330;BME280;33060;50.178;7.570;2024-01-15T03:45:05;95749.88;;;-0.58;100.00
47330;BME280;33060;50.178;7.570;2024-01-15T03:47:31;95757.75;;;-0.42;100.00
47330;BME280;33060;50.178;7.570;2024-01-15T03:49:59;95755.34;;;-0.82;100.00
47330;BME280;33060;50.178;7.570;2024-01-15T03:52:26;95749.56;;;-0.33;100.00
47330;BME280;33060;50.178;7.570;2024-01-15T03:54:53;95750.28;;;-0.48;100.00
47330;BME280;33060;50.178;7.570;2024-01-15T03:57:19;95748.03;;;-0.55;100.00
47330;BME280;33060;50.178;7.570;2024-01-15T03:59:46;95732.94;;;-0.29;100.00
47330;BME280;33060;50.178;7.570;2024-01-15T04:02:13;95734.84;;;-0.32;100.00
47330;BME280;33060;50.178;7.570;2024-01-15T04:04:42;95727.63;;;-0.25;100.00
47330;BME280;33060;50.178;7.570;2024-01-15T04:07:09;95722.34;;;-0.24;100.00
47330;BME280;33060;50.178;7.570;2024-01-15T04:09:36;95728.84;;;0.19;100.00
47330;BME280;33060;50.178;7.570;2024-01-15T04:12:03;95727.16;;;-0.16;100.00
47330;BME280;33060;50.178;7.570;2024-01-15T04:14:30;95731.72;;;0.13;100.00
47330;BME280;33060;50.178;7.570;2024-01-15T04:16:56;95728.91;;;-0.17;100.00
47330;BME280;33060;50.178;7.570;2024-01-15T04:19:23;95728.84;;;0.02;100.00
47330;BME280;33060;50.178;7.570;2024-01-15T04:21:50;95729.75;;;0.01;100.00
47330;BME280;33060;50.178;7.570;2024-01-15T04:24:17;95726.69;;;-0.24;100.00
47330;BME280;33060;50.178;7.570;2024-01-15T04:26:45;95732.41;;;-0.18;100.00
47330;BME280;33060;50.178;7.570;2024-01-15T04:29:12;95731.81;;;0.12;100.00
47330;BME280;33060;50.178;7.570;2024-01-15T04:31:38;95732.34;;;0.18;100.00
47330;BME280;33060;50.178;7.570;2024-01-15T04:34:05;95728.31;;;-0.05;100.00
47330;BME280;33060;50.178;7.570;2024-01-15T04:36:38;95719.31;;;-0.15;100.00
47330;BME280;33060;50.178;7.570;2024-01-15T04:39:05;95719.78;;;-0.24;100.00
47330;BME280;33060;50.178;7.570;2024-01-15T04:41:32;95716.53;;;0.23;100.00
47330;BME280;33060;50.178;7.570;2024-01-15T04:43:58;95723.19;;;0.28;100.00
47330;BME280;33060;50.178;7.570;2024-01-15T04:46:27;95717.19;;;0.11;100.00
47330;BME280;33060;50.178;7.570;2024-01-15T04:48:54;95713.59;;;0.13;100.00
47330;BME280;33060;50.178;7.570;2024-01-15T04:51:21;95703.84;;;-0.16;100.00
47330;BME280;33060;50.178;7.570;2024-01-15T04:53:48;95697.66;;;0.04;100.00
47330;BME280;33060;50.178;7.570;2024-01-15T04:56:14;95703.00;;;-0.17;100.00
47330;BME280;33060;50.178;7.570;2024-01-15T04:58:41;95705.25;;;0.24;100.00
47330;BME280;33060;50.178;7.570;2024-01-15T05:01:08;95697.81;;;-0.17;100.00
47330;BME280;33060;50.178;7.570;2024-01-15T05:03:35;95708.56;;;0.10;100.00
47330;BME280;33060;50.178;7.570;2024-01-15T05:06:02;95703.84;;;0.34;100.00
47330;BME280;33060;50.178;7.570;2024-01-15T05:08:30;95709.78;;;0.03;100.00
47330;BME280;33060;50.178;7.570;2024-01-15T05:10:57;95706.44;;;0.18;100.00
47330;BME280;33060;50.178;7.570;2024-01-15T05:13:23;95700.16;;;0.22;100.00
47330;BME280;33060;50.178;7.570;2024-01-15T05:15:50;95697.34;;;0.10;100.00
47330;BME280;33060;50.178;7.570;2024-01-15T05:18:17;95699.25;;;-0.29;100.00
47330;BME280;33060;50.178;7.570;2024-01-15T05:20:44;95695.91;;;0.04;100.00
47330;BME280;33060;50.178;7.570;2024-01-15T05:23:11;95691.09;;;-0.04;100.00
47330;BME280;33060;50.178;7.570;2024-01-15T05:25:37;95690.66;;;-0.12;100.00
47330;BME280;33060;50.178;7.570;2024-01-15T05:28:05;95690.97;;;0.33;100.00
47330;BME280;33060;50.178;7.570;2024-01-15T05:30:32;95693.28;;;0.21;100.00
47330;BME280;33060;50.178;7.570;2024-01-15T05:32:59;95694.69;;;0.11;100.00
47330;BME280;33060;50.178;7.570;2024-01-15T05:35:27;95686.34;;;0.22;100.00
47330;BME280;33060;50.178;7.570;2024-01-15T05:37:53;95686.16;;;0.42;100.00
47330;BME280;33060;50.178;7.570;2024-01-15T05:40:20;95685.91;;;-0.21;100.00
47330;BME280;33060;50.178;7.570;2024-01-15T05:42:47;95688.78;;;0.25;100.00
47330;BME280;33060;50.178;7.570;2024-01-15T05:45:14;95680.81;;;-0.05;100.00
47330;BME280;33060;50.178;7.570;2024-01-15T05:47:41;95676.63;;;0.43;100.00
47330;BME280;33060;50.178;7.570;2024-01-15T05:50:08;95677.91;;;0.18;100.00
47330;BME280;33060;50.178;7.570;2024-01-15T05:52:36;95678.19;;;0.30;100.00
47330;BME280;33060;50.178;7.570;2024-01-15T05:55:04;95678.03;;;0.15;100.00
47330;BME280;33060;50.178;7.570;2024-01-15T05:57:31;95678.56;;;0.22;100.00
47330;BME280;33060;50.178;7.570;2024-01-15T05:59:57;95684.91;;;-0.18;100.00
47330;BME280;33060;50.178;7.570;2024-01-15T06:02:24;95681.94;;;-0.11;100.00
47330;BME280;33060;50.178;7.570;2024-01-15T06:04:51;95686.75;;;-0.20;100.00
47330;BME280;33060;50.178;7.570;2024-01-15T06:07:17;95674.97;;;0.24;100.00
47330;BME280;33060;50.178;7.570;2024-01-15T06:09:44;95676.81;;;0.55;100.00
47330;BME280;33060;50.178;7.570;2024-01-15T06:12:11;95674.09;;;0.41;100.00
47330;BME280;33060;50.178;7.570;2024-01-15T06:14:38;95681.56;;;-0.20;100.00
47330;BME280;33060;50.178;7.570;2024-01-15T06:17:05;95684.59;;;0.22;100.00
47330;BME280;33060;50.178;7.570;2024-01-15T06:19:32;95679.06;;;0.13;100.00
47330;BME280;33060;50.178;7.570;2024-01-15T06:21:59;95684.28;;;0.28;100.00
47330;BME280;33060;50.178;7.570;2024-01-15T06:24:26;95682.16;;;0.19;100.00
47330;BME280;33060;50.178;7.570;2024-01-15T06:26:53;95682.66;;;-0.07;100.00
47330;BME280;33060;50.178;7.570;2024-01-15T06:29:19;95675.91;;;0.23;100.00
47330;BME280;33060;50.178;7.570;2024-01-15T06:31:46;95680.88;;;0.11;100.00
47330;BME280;33060;50.178;7.570;2024-01-15T06:34:15;95675.69;;;0.28;100.00
47330;BME280;33060;50.178;7.570;2024-01-15T06:36:42;95681.34;;;0.35;100.00
47330;BME280;33060;50.178;7.570;2024-01-15T06:39:08;95682.38;;;0.32;100.00
47330;BME280;33060;50.178;7.570;2024-01-15T06:41:36;95676.06;;;0.20;100.00
47330;BME280;33060;50.178;7.570;2024-01-15T06:44:10;95678.84;;;0.66;100.00
47330;BME280;33060;50.178;7.570;2024-01-15T06:46:50;95681.81;;;0.43;100.00
47330;BME280;33060;50.178;7.570;2024-01-15T06:49:18;95677.94;;;0.34;100.00
47330;BME280;33060;50.178;7.570;2024-01-15T06:51:45;95671.69;;;0.38;100.00
47330;BME280;33060;50.178;7.570;2024-01-15T06:54:14;95677.34;;;0.29;100.00
47330;BME280;33060;50.178;7.570;2024-01-15T06:56:41;95676.63;;;0.43;100.00
47330;BME280;33060;50.178;7.570;2024-01-15T06:59:08;95678.84;;;0.33;100.00
47330;BME280;33060;50.178;7.570;2024-01-15T07:01:35;95674.53;;;0.49;100.00
47330;BME280;33060;50.178;7.570;2024-01-15T07:04:01;95663.66;;;0.43;100.00
47330;BME280;33060;50.178;7.570;2024-01-15T07:06:28;95665.25;;;0.12;100.00
47330;BME280;33060;50.178;7.570;2024-01-15T07:08:55;95657.00;;;0.21;100.00
47330;BME280;33060;50.178;7.570;2024-01-15T07:11:22;95654.56;;;0.18;100.00
47330;BME280;33060;50.178;7.570;2024-01-15T07:13:48;95668.84;;;0.10;100.00
47330;BME280;33060;50.178;7.570;2024-01-15T07:16:15;95661.25;;;0.55;100.00
47330;BME280;33060;50.178;7.570;2024-01-15T07:19:02;95666.44;;;0.55;100.00
47330;BME280;33060;50.178;7.570;2024-01-15T07:21:28;95665.91;;;0.16;100.00
47330;BME280;33060;50.178;7.570;2024-01-15T07:23:56;95666.25;;;0.43;100.00
47330;BME280;33060;50.178;7.570;2024-01-15T07:26:23;95670.78;;;0.22;100.00
47330;BME280;33060;50.178;7.570;2024-01-15T07:28:50;95675.91;;;0.23;100.00
47330;BME280;33060;50.178;7.570;2024-01-15T07:31:17;95672.06;;;0.31;100.00
47330;BME280;33060;50.178;7.570;2024-01-15T07:33:44;95678.63;;;0.38;100.00
47330;BME280;33060;50.178;7.570;2024-01-15T07:36:11;95670.13;;;0.67;100.00
47330;BME280;33060;50.178;7.570;2024-01-15T07:38:37;95675.25;;;0.69;100.00
47330;BME280;33060;50.178;7.570;2024-01-15T07:41:04;95666.91;;;0.79;100.00
47330;BME280;33060;50.178;7.570;2024-01-15T07:43:31;95670.63;;;0.58;100.00
47330;BME280;33060;50.178;7.570;2024-01-15T07:45:57;95668.63;;;-0.20;100.00
47330;BME280;33060;50.178;7.570;2024-01-15T07:48:26;95667.97;;;0.26;100.00
47330;BME280;33060;50.178;7.570;2024-01-15T07:50:53;95666.38;;;0.07;100.00
47330;BME280;33060;50.178;7.570;2024-01-15T07:53:19;95658.94;;;0.34;100.00
47330;BME280;33060;50.178;7.570;2024-01-15T07:55:46;95656.50;;;0.95;100.00
47330;BME280;33060;50.178;7.570;2024-01-15T07:58:13;95650.66;;;0.76;100.00
47330;BME280;33060;50.178;7.570;2024-01-15T08:00:42;95650.72;;;0.74;100.00
47330;BME280;33060;50.178;7.570;2024-01-15T08:03:10;95663.84;;;0.55;100.00
47330;BME280;33060;50.178;7.570;2024-01-15T08:05:37;95651.66;;;0.73;100.00
47330;BME280;33060;50.178;7.570;2024-01-15T08:08:04;95652.25;;;0.78;100.00
47330;BME280;33060;50.178;7.570;2024-01-15T08:10:30;95655.50;;;0.82;100.00
47330;BME280;33060;50.178;7.570;2024-01-15T08:12:57;95657.09;;;0.84;100.00
47330;BME280;33060;50.178;7.570;2024-01-15T08:15:24;95670.88;;;0.53;100.00
47330;BME280;33060;50.178;7.570;2024-01-15T08:17:55;95673.25;;;0.74;100.00
47330;BME280;33060;50.178;7.570;2024-01-15T08:20:22;95688.13;;;0.54;100.00
47330;BME280;33060;50.178;7.570;2024-01-15T08:22:49;95690.91;;;0.67;100.00
47330;BME280;33060;50.178;7.570;2024-01-15T08:25:16;95687.72;;;0.62;100.00
47330;BME280;33060;50.178;7.570;2024-01-15T08:27:42;95690.38;;;0.45;100.00
47330;BME280;33060;50.178;7.570;2024-01-15T08:30:10;95685.94;;;0.47;100.00
47330;BME280;33060;50.178;7.570;2024-01-15T08:32:37;95689.44;;;0.46;100.00
47330;BME280;33060;50.178;7.570;2024-01-15T08:35:08;95685.03;;;0.31;100.00
47330;BME280;33060;50.178;7.570;2024-01-15T08:37:36;95689.88;;;0.54;100.00
47330;BME280;33060;50.178;7.570;2024-01-15T08:40:04;95678.00;;;0.66;100.00
47330;BME280;33060;50.178;7.570;2024-01-15T08:42:31;95680.78;;;0.30;100.00
47330;BME280;33060;50.178;7.570;2024-01-15T08:44:57;95681.00;;;0.58;100.00
47330;BME280;33060;50.178;7.570;2024-01-15T08:47:24;95673.97;;;0.60;100.00
47330;BME280;33060;50.178;7.570;2024-01-15T08:49:52;95670.94;;;0.52;100.00
47330;BME280;33060;50.178;7.570;2024-01-15T08:52:19;95670.28;;;0.48;100.00
47330;BME280;33060;50.178;7.570;2024-01-15T08:54:46;95673.00;;;0.94;100.00
47330;BME280;33060;50.178;7.570;2024-01-15T08:57:14;95677.84;;;0.84;100.00
47330;BME280;33060;50.178;7.570;2024-01-15T08:59:40;95672.44;;;1.05;100.00
47330;BME280;33060;50.178;7.570;2024-01-15T09:02:08;95662.88;;;0.90;100.00
47330;BME280;33060;50.178;7.570;2024-01-15T09:04:34;95668.16;;;0.88;100.00
47330;BME280;33060;50.178;7.570;2024-01-15T09:07:01;95673.69;;;1.13;100.00
47330;BME280;33060;50.178;7.570;2024-01-15T09:09:28;95671.66;;;1.34;100.00
47330;BME280;33060;50.178;7.570;2024-01-15T09:11:55;95668.47;;;1.29;100.00
47330;BME280;33060;50.178;7.570;2024-01-15T09:14:22;95679.78;;;1.12;100.00
47330;BME280;33060;50.178;7.570;2024-01-15T09:17:04;95679.13;;;1.25;100.00
47330;BME280;33060;50.178;7.570;2024-01-15T09:19:31;95682.22;;;0.84;100.00
47330;BME280;33060;50.178;7.570;2024-01-15T09:21:58;95665.13;;;1.27;100.00
47330;BME280;33060;50.178;7.570;2024-01-15T09:24:25;95671.66;;;1.19;100.00
47330;BME280;33060;50.178;7.570;2024-01-15T09:26:54;95664.28;;;1.42;100.00
47330;BME280;33060;50.178;7.570;2024-01-15T09:29:21;95668.22;;;1.02;100.00
47330;BME280;33060;50.178;7.570;2024-01-15T09:31:50;95675.50;;;1.27;100.00
47330;BME280;33060;50.178;7.570;2024-01-15T09:34:17;95678.06;;;1.13;100.00
47330;BME280;33060;50.178;7.570;2024-01-15T09:36:44;95680.78;;;1.41;100.00
47330;BME280;33060;50.178;7.570;2024-01-15T09:39:11;95675.09;;;1.35;100.00
47330;BME280;33060;50.178;7.570;2024-01-15T09:41:38;95671.66;;;1.34;100.00
47330;BME280;33060;50.178;7.570;2024-01-15T09:44:05;95678.03;;;0.81;100.00
47330;BME280;33060;50.178;7.570;2024-01-15T09:46:34;95669.25;;;1.31;100.00
47330;BME280;33060;50.178;7.570;2024-01-15T09:49:02;95678.38;;;0.91;100.00
47330;BME280;33060;50.178;7.570;2024-01-15T09:51:32;95664.56;;;1.22;100.00
47330;BME280;33060;50.178;7.570;2024-01-15T09:53:58;95670.25;;;0.81;100.00
47330;BME280;33060;50.178;7.570;2024-01-15T09:56:25;95668.41;;;1.15;100.00
47330;BME280;33060;50.178;7.570;2024-01-15T09:58:52;95669.38;;;1.28;100.00
47330;BME280;33060;50.178;7.570;2024-01-15T10:01:22;95664.97;;;0.83;100.00
47330;BME280;33060;50.178;7.570;2024-01-15T10:03:50;95665.06;;;0.81;100.00
47330;BME280;33060;50.178;7.570;2024-01-15T10:06:17;95666.81;;;1.12;100.00
47330;BME280;33060;50.178;7.570;2024-01-15T10:08:50;95670.47;;;0.61;100.00
47330;BME280;33060;50.178;7.570;2024-01-15T10:11:17;95669.50;;;1.11;100.00
47330;BME280;33060;50.178;7.570;2024-01-15T10:13:44;95660.94;;;1.25;100.00
47330;BME280;33060;50.178;7.570;2024-01-15T10:16:13;95652.00;;;1.15;100.00
47330;BME280;33060;50.178;7.570;2024-01-15T10:18:39;95661.53;;;1.14;100.00
47330;BME280;33060;50.178;7.570;2024-01-15T10:21:06;95662.63;;;1.10;100.00
47330;BME280;33060;50.178;7.570;2024-01-15T10:23:34;95650.59;;;1.39;100.00
47330;BME280;33060;50.178;7.570;2024-01-15T10:26:00;95641.16;;;1.68;100.00
47330;BME280;33060;50.178;7.570;2024-01-15T10:28:27;95641.19;;;1.52;100.00
47330;BME280;33060;50.178;7.570;2024-01-15T10:30:57;95633.72;;;1.32;100.00
47330;BME280;33060;50.178;7.570;2024-01-15T10:33:26;95629.47;;;1.15;100.00
47330;BME280;33060;50.178;7.570;2024-01-15T10:35:57;95626.72;;;1.48;100.00
47330;BME280;33060;50.178;7.570;2024-01-15T10:38:24;95622.19;;;1.52;100.00
47330;BME280;33060;50.178;7.570;2024-01-15T10:40:52;95634.81;;;0.65;100.00
47330;BME280;33060;50.178;7.570;2024-01-15T10:43:19;95620.66;;;1.48;100.00
47330;BME280;33060;50.178;7.570;2024-01-15T10:45:50;95615.94;;;1.40;100.00
47330;BME280;33060;50.178;7.570;2024-01-15T10:48:18;95617.69;;;1.39;100.00
47330;BME280;33060;50.178;7.570;2024-01-15T10:50:47;95611.19;;;1.17;100.00
47330;BME280;33060;50.178;7.570;2024-01-15T10:53:15;95606.25;;;1.12;100.00
47330;BME280;33060;50.178;7.570;2024-01-15T10:55:43;95613.47;;;1.07;100.00
47330;BME280;33060;50.178;7.570;2024-01-15T10:58:09;95606.00;;;1.17;100.00
47330;BME280;33060;50.178;7.570;2024-01-15T11:00:37;95602.91;;;1.10;100.00
47330;BME280;33060;50.178;7.570;2024-01-15T11:03:07;95598.41;;;1.88;100.00
47330;BME280;33060;50.178;7.570;2024-01-15T11:05:44;95603.91;;;2.12;97.63
47330;BME280;33060;50.178;7.570;2024-01-15T11:08:11;95606.22;;;2.16;99.17
47330;BME280;33060;50.178;7.570;2024-01-15T11:13:21;95605.13;;;2.49;95.29
47330;BME280;33060;50.178;7.570;2024-01-15T11:16:00;95613.75;;;1.92;99.61
47330;BME280;33060;50.178;7.570;2024-01-15T11:18:29;95614.84;;;1.74;100.00
47330;BME280;33060;50.178;7.570;2024-01-15T11:26:30;95599.09;;;1.91;100.00
47330;BME280;33060;50.178;7.570;2024-01-15T11:28:59;95591.13;;;2.09;99.67
47330;BME280;33060;50.178;7.570;2024-01-15T11:34:16;95596.44;;;1.77;100.00
47330;BME280;33060;50.178;7.570;2024-01-15T11:42:03;95599.28;;;1.58;100.00
47330;BME280;33060;50.178;7.570;2024-01-15T11:44:30;95607.13;;;1.42;100.00
47330;BME280;33060;50.178;7.570;2024-01-15T11:47:02;95607.19;;;1.71;100.00
47330;BME280;33060;50.178;7.570;2024-01-15T11:52:04;95602.03;;;1.85;100.00
47330;BME280;33060;50.178;7.570;2024-01-15T11:54:33;95608.47;;;2.22;99.54
47330;BME280;33060;50.178;7.570;2024-01-15T11:57:07;95616.09;;;2.11;100.00
47330;BME280;33060;50.178;7.570;2024-01-15T11:59:36;95612.59;;;1.82;100.00
47330;BME280;33060;50.178;7.570;2024-01-15T12:02:03;95616.09;;;1.67;100.00
47330;BME280;33060;50.178;7.570;2024-01-15T12:04:30;95611.41;;;1.88;100.00
47330;BME280;33060;50.178;7.570;2024-01-15T12:06:56;95609.47;;;2.06;100.00
47330;BME280;33060;50.178;7.570;2024-01-15T12:09:23;95607.16;;;2.15;100.00
47330;BME280;33060;50.178;7.570;2024-01-15T12:11:51;95600.94;;;2.32;100.00
47330;BME280;33060;50.178;7.570;2024-01-15T12:14:21;95606.91;;;2.20;99.60
47330;BME280;33060;50.178;7.570;2024-01-15T12:16:49;95610.84;;;1.83;99.51
47330;BME280;33060;50.178;7.570;2024-01-15T12:19:16;95605.47;;;2.43;98.10
47330;BME280;33060;50.178;7.570;2024-01-15T12:21:43;95605.03;;;2.36;97.69
47330;BME280;33060;50.178;7.570;2024-01-15T12:24:11;95608.38;;;2.24;98.58
47330;BME280;33060;50.178;7.570;2024-01-15T12:26:38;95604.59;;;2.44;96.73
47330;BME280;33060;50.178;7.570;2024-01-15T12:29:06;95611.44;;;2.02;100.00
47330;BME280;33060;50.178;7.570;2024-01-15T12:31:33;95609.59;;;2.18;96.89
47330;BME280;33060;50.178;7.570;2024-01-15T12:34:01;95609.09;;;1.97;97.74
47330;BME280;33060;50.178;7.570;2024-01-15T12:36:31;95606.22;;;2.59;98.62
47330;BME280;33060;50.178;7.570;2024-01-15T12:39:01;95609.97;;;2.55;95.34
47330;BME280;33060;50.178;7.570;2024-01-15T12:41:28;95621.59;;;2.35;96.83
47330;BME280;33060;50.178;7.570;2024-01-15T12:43:55;95625.84;;;2.36;98.55
47330;BME280;33060;50.178;7.570;2024-01-15T12:46:21;95625.94;;;2.20;96.37
47330;BME280;33060;50.178;7.570;2024-01-15T12:48:49;95634.03;;;2.44;96.74
47330;BME280;33060;50.178;7.570;2024-01-15T12:51:16;95629.19;;;2.10;98.23
47330;BME280;33060;50.178;7.570;2024-01-15T12:53:43;95625.09;;;2.63;97.23
47330;BME280;33060;50.178;7.570;2024-01-15T12:56:10;95627.69;;;2.34;96.72
47330;BME280;33060;50.178;7.570;2024-01-15T12:58:36;95632.34;;;2.58;97.45
47330;BME280;33060;50.178;7.570;2024-01-15T13:01:03;95629.47;;;2.48;96.85
47330;BME280;33060;50.178;7.570;2024-01-15T13:03:31;95631.97;;;2.21;97.37
47330;BME280;33060;50.178;7.570;2024-01-15T13:05:57;95631.97;;;2.64;94.36
47330;BME280;33060;50.178;7.570;2024-01-15T13:08:24;95634.22;;;2.70;94.64
47330;BME280;33060;50.178;7.570;2024-01-15T13:10:53;95644.25;;;2.62;94.24
47330;BME280;33060;50.178;7.570;2024-01-15T13:13:23;95635.44;;;2.36;96.94
47330;BME280;33060;50.178;7.570;2024-01-15T13:15:50;95634.22;;;2.55;96.43
47330;BME280;33060;50.178;7.570;2024-01-15T13:18:16;95628.72;;;2.60;93.92